Time;durP1;ratioP1;P1;durP2;ratioP2;P2;SDS_P1;SDS_P2;PMS_P1;PMS_P2;Temp;Humidity;BMP_temperature;BMP_pressure;BME280_temperature;BME280_humidity;BME280_pressure;Samples;Min_cycle;Max_cycle;Signal;HPM_P1;HPM_P2
2023/04/05 00:01:06;;;;;;;2.90;2.60;;;5.10;54.20;4.60;96794.00;;;;5051294;28;20438;-84
2023/04/05 00:03:34;;;;;;;2.80;2.60;;;5.10;54.30;4.60;96791.00;;;;5061056;28;20553;-84
2023/04/05 00:06:04;;;;;;;2.67;2.47;;;5.00;54.30;4.60;96792.00;;;;5059576;28;20224;-85
2023/04/05 00:08:31;;;;;;;3.17;2.70;;;5.00;54.40;4.60;96790.00;;;;5051393;28;20227;-87
2023/04/05 00:10:58;;;;;;;2.90;2.70;;;5.00;54.50;4.60;96790.00;;;;5044715;28;20247;-84
2023/04/05 00:13:27;;;;;;;2.87;2.67;;;5.00;54.60;4.60;96786.00;;;;5058561;28;20239;-86
2023/04/05 00:15:57;;;;;;;3.70;2.90;;;4.90;54.70;4.60;96778.00;;;;5063198;28;20222;-84
2023/04/05 00:18:25;;;;;;;3.23;2.90;;;4.90;54.90;4.60;96789.00;;;;5072619;28;20539;-85
2023/04/05 00:20:53;;;;;;;2.80;2.60;;;5.00;55.10;4.60;96783.00;;;;5050091;28;20197;-85
2023/04/05 00:23:26;;;;;;;3.07;2.77;;;4.90;55.20;4.60;96781.00;;;;5053333;28;20197;-84
2023/04/05 00:25:53;;;;;;;3.37;2.53;;;4.90;55.40;4.60;96780.00;;;;5057307;28;20224;-84
2023/04/05 00:28:20;;;;;;;3.20;2.73;;;4.90;55.60;4.60;96783.00;;;;5048874;28;20201;-85
2023/04/05 00:30:51;;;;;;;4.83;3.57;;;4.90;55.60;4.60;96780.00;;;;5051338;28;20200;-86
2023/04/05 00:33:24;;;;;;;3.13;2.90;;;4.90;55.70;4.60;96778.00;;;;5048479;28;20667;-84
2023/04/05 00:35:51;;;;;;;3.03;2.67;;;5.00;55.80;4.70;96783.00;;;;5047750;28;20588;-84
2023/04/05 00:38:18;;;;;;;2.97;2.77;;;5.00;55.80;4.60;96773.00;;;;5057510;28;20239;-84
2023/04/05 00:40:45;;;;;;;3.10;2.80;;;4.90;55.80;4.60;96777.00;;;;5052118;28;20685;-84
2023/04/05 00:43:20;;;;;;;4.50;3.10;;;4.90;55.90;4.70;96770.00;;;;5056605;28;20239;-85
2023/04/05 00:45:48;;;;;;;3.20;2.90;;;5.00;56.00;4.60;96773.00;;;;5057528;28;20746;-84
2023/04/05 00:48:16;;;;;;;3.90;3.00;;;5.00;55.90;4.60;96777.00;;;;5057532;28;20242;-84
2023/04/05 00:50:43;;;;;;;3.40;2.73;;;5.00;56.00;4.60;96770.00;;;;5052485;28;20189;-84
2023/04/05 00:53:11;;;;;;;3.40;3.13;;;5.00;56.00;4.60;96774.00;;;;5060079;28;20197;-86
2023/04/05 00:55:38;;;;;;;4.73;3.40;;;5.00;55.90;4.60;96769.00;;;;5051443;28;20267;-84
2023/04/05 00:58:05;;;;;;;3.17;2.80;;;5.00;56.00;4.60;96764.00;;;;5051440;28;20224;-84
2023/04/05 01:00:33;;;;;;;3.47;2.60;;;5.00;56.10;4.60;96762.00;;;;5051758;28;20232;-86
2023/04/05 01:03:04;;;;;;;3.23;2.70;;;5.00;56.20;4.70;96766.00;;;;5051948;28;20815;-84
2023/04/05 01:05:40;;;;;;;3.33;2.50;;;5.00;56.30;4.70;96764.00;;;;5050752;28;20239;-84
2023/04/05 01:08:18;;;;;;;2.60;2.40;;;5.00;56.30;4.70;96761.00;;;;5050789;28;20184;-84
2023/04/05 01:10:54;;;;;;;2.57;2.37;;;5.00;56.30;4.70;96764.00;;;;5050391;28;20235;-85
2023/04/05 01:13:24;;;;;;;2.93;2.73;;;5.10;56.80;4.70;96761.00;;;;5052847;28;20295;-85
2023/04/05 01:15:56;;;;;;;2.73;2.53;;;5.00;56.20;4.70;96762.00;;;;5053231;28;20252;-87
2023/04/05 01:18:25;;;;;;;2.60;2.43;;;5.10;56.10;4.70;96748.00;;;;5055982;28;20191;-87
2023/04/05 01:21:09;;;;;;;2.63;2.43;;;5.10;56.10;4.70;96750.00;;;;5052269;28;20648;-84
2023/04/05 01:23:45;;;;;;;2.60;2.40;;;5.10;56.20;4.70;96754.00;;;;5058852;28;20204;-85
2023/04/05 01:26:53;;;;;;;3.10;2.80;;;5.10;56.20;4.70;96741.00;;;;5046676;28;20212;-85
2023/04/05 01:29:50;;;;;;;2.70;2.50;;;5.20;56.40;4.70;96745.00;;;;5043355;28;20559;-85
2023/04/05 01:32:41;;;;;;;2.67;2.47;;;5.10;56.40;4.70;96746.00;;;;5057007;28;20678;-84
2023/04/05 01:35:21;;;;;;;2.43;2.27;;;5.10;56.30;4.70;96741.00;;;;5057974;28;20243;-85
2023/04/05 01:38:05;;;;;;;2.50;2.30;;;5.10;56.20;4.70;96739.00;;;;5057683;28;20224;-85
2023/04/05 01:40:37;;;;;;;2.60;2.40;;;5.20;56.10;4.60;96727.00;;;;5052679;28;20227;-84
2023/04/05 01:43:14;;;;;;;2.60;2.40;;;5.10;56.00;4.60;96730.00;;;;5046668;28;20521;-84
2023/04/05 01:45:43;;;;;;;2.77;2.57;;;5.10;56.20;4.60;96726.00;;;;5060076;28;20212;-84
2023/04/05 01:48:11;;;;;;;2.87;2.67;;;5.10;56.10;4.60;96721.00;;;;5055638;28;20782;-83
2023/04/05 01:50:38;;;;;;;2.70;2.50;;;5.10;56.00;4.60;96727.00;;;;5054790;28;20216;-84
2023/04/05 01:53:07;;;;;;;2.87;2.67;;;5.00;55.70;4.60;96720.00;;;;5062295;28;20657;-84
2023/04/05 01:55:34;;;;;;;2.77;2.50;;;5.00;55.60;4.60;96718.00;;;;5061502;28;20248;-84
2023/04/05 01:58:01;;;;;;;2.60;2.40;;;5.00;55.50;4.60;96722.00;;;;5054888;28;20641;-85
2023/04/05 02:00:29;;;;;;;2.97;2.67;;;5.00;56.20;4.60;96727.00;;;;5061742;28;20191;-85
2023/04/05 02:02:58;;;;;;;2.93;2.73;;;5.00;55.60;4.60;96712.00;;;;5057962;28;20201;-85
2023/04/05 02:05:25;;;;;;;3.50;3.17;;;5.00;55.50;4.60;96714.00;;;;5054497;28;20522;-84
2023/04/05 02:07:52;;;;;;;2.90;2.57;;;5.00;55.50;4.50;96709.00;;;;5053906;28;20197;-84
2023/04/05 02:10:20;;;;;;;2.47;2.27;;;4.90;55.50;4.50;96713.00;;;;5053329;28;20250;-85
2023/04/05 02:12:47;;;;;;;2.63;2.43;;;4.90;55.60;4.50;96709.00;;;;5053963;28;20224;-86
2023/04/05 02:15:15;;;;;;;3.23;2.90;;;4.90;55.60;4.50;96705.00;;;;5054048;28;20251;-85
2023/04/05 02:17:44;;;;;;;3.27;2.97;;;4.90;55.60;4.50;96707.00;;;;5051611;28;20224;-85
2023/04/05 02:20:14;;;;;;;2.43;2.23;;;4.90;55.50;4.40;96715.00;;;;5051031;28;20274;-87
2023/04/05 02:22:44;;;;;;;3.03;2.60;;;4.90;55.60;4.40;96703.00;;;;5052964;28;20215;-85
2023/04/05 02:25:12;;;;;;;3.07;2.63;;;4.80;55.60;4.40;96700.00;;;;5058410;28;20216;-85
2023/04/05 02:27:39;;;;;;;2.73;2.53;;;4.90;55.60;4.40;96700.00;;;;5052886;28;20196;-84
2023/04/05 02:30:09;;;;;;;3.13;2.83;;;4.80;55.50;4.40;96694.00;;;;5071065;28;20230;-85
2023/04/05 02:32:36;;;;;;;2.70;2.50;;;4.80;55.60;4.40;96697.00;;;;5058751;28;20220;-86
2023/04/05 02:35:03;;;;;;;2.40;2.27;;;4.80;55.60;4.40;96695.00;;;;5062026;28;20240;-84
2023/04/05 02:37:32;;;;;;;3.13;2.80;;;4.70;55.70;4.30;96701.00;;;;5053817;28;20259;-84
2023/04/05 02:39:59;;;;;;;2.67;2.50;;;4.70;55.80;4.30;96694.00;;;;5046149;28;20481;-84
2023/04/05 02:42:26;;;;;;;3.47;3.17;;;4.70;55.50;4.30;96694.00;;;;5054172;28;20224;-85
2023/04/05 02:44:54;;;;;;;4.67;2.83;;;4.70;55.50;4.30;96692.00;;;;5054348;28;20451;-84
2023/04/05 02:47:21;;;;;;;2.70;2.50;;;4.70;55.60;4.30;96696.00;;;;5053891;28;20201;-84
2023/04/05 02:49:48;;;;;;;3.03;2.70;;;4.70;55.50;4.30;96694.00;;;;5063441;28;20290;-87
2023/04/05 02:52:16;;;;;;;3.00;2.70;;;4.70;55.50;4.20;96685.00;;;;5065062;28;20195;-84
2023/04/05 02:54:45;;;;;;;2.70;2.50;;;4.60;55.50;4.20;96681.00;;;;5064383;28;20564;-85
2023/04/05 02:57:13;;;;;;;3.17;2.57;;;4.60;55.50;4.20;96689.00;;;;5052068;28;21044;-84
2023/04/05 02:59:41;;;;;;;4.67;3.20;;;4.60;55.50;4.20;96690.00;;;;5054527;28;20197;-84
2023/04/05 03:02:09;;;;;;;3.43;2.80;;;4.60;55.60;4.20;96675.00;;;;5067721;28;20439;-84
2023/04/05 03:04:37;;;;;;;2.70;2.50;;;4.60;55.50;4.20;96678.00;;;;5054155;28;20523;-84
2023/04/05 03:07:05;;;;;;;2.87;2.67;;;4.60;55.40;4.20;96682.00;;;;5061063;28;20199;-84
2023/04/05 03:09:33;;;;;;;3.20;3.00;;;4.60;55.50;4.20;96685.00;;;;5068152;28;20283;-84
2023/04/05 03:12:03;;;;;;;10.83;3.10;;;4.60;55.50;4.20;96685.00;;;;5059533;28;20262;-84
2023/04/05 03:14:31;;;;;;;4.17;3.07;;;4.60;55.50;4.20;96680.00;;;;5050235;28;20451;-84
2023/04/05 03:16:58;;;;;;;3.83;3.20;;;4.60;55.50;4.20;96681.00;;;;5042482;28;20841;-84
2023/04/05 03:19:27;;;;;;;3.37;2.90;;;4.60;55.60;4.30;96682.00;;;;5058762;28;20235;-85
2023/04/05 03:21:54;;;;;;;4.83;3.27;;;4.60;55.50;4.20;96685.00;;;;5053089;28;20217;-85
2023/04/05 03:24:21;;;;;;;2.80;2.60;;;4.60;55.60;4.20;96684.00;;;;5053791;28;20224;-86
2023/04/05 03:26:49;;;;;;;4.00;3.00;;;4.60;55.60;4.20;96679.00;;;;5053288;28;20439;-85
2023/04/05 03:29:18;;;;;;;3.87;3.30;;;4.60;55.60;4.20;96685.00;;;;5052554;28;20463;-85
2023/04/05 03:31:45;;;;;;;3.80;3.50;;;4.60;55.50;4.20;96681.00;;;;5053443;28;20446;-84
2023/04/05 03:34:13;;;;;;;2.90;2.70;;;4.70;55.50;4.20;96678.00;;;;5053488;28;20236;-85
2023/04/05 03:36:43;;;;;;;3.43;2.90;;;4.60;55.50;4.20;96679.00;;;;5052829;28;20475;-84
2023/04/05 03:39:11;;;;;;;3.33;3.03;;;4.60;55.60;4.30;96676.00;;;;5052089;28;21207;-84
2023/04/05 03:41:39;;;;;;;3.20;2.90;;;4.60;55.60;4.20;96674.00;;;;5056288;28;20200;-85
2023/04/05 03:44:07;;;;;;;5.10;3.00;;;4.60;55.70;4.20;96674.00;;;;5053005;28;20197;-85
2023/04/05 03:46:36;;;;;;;3.47;2.97;;;4.70;55.90;4.20;96677.00;;;;5052507;28;20482;-85
2023/04/05 03:49:03;;;;;;;3.03;2.73;;;4.70;55.90;4.30;96678.00;;;;5051589;28;20773;-84
2023/04/05 03:51:32;;;;;;;2.97;2.67;;;4.70;55.90;4.30;96678.00;;;;5053971;28;20497;-83
2023/04/05 03:53:59;;;;;;;2.90;2.70;;;4.70;55.90;4.30;96676.00;;;;5052651;28;20454;-84
2023/04/05 03:56:27;;;;;;;4.03;3.37;;;4.70;55.90;4.30;96678.00;;;;5052538;28;20315;-84
2023/04/05 03:58:54;;;;;;;4.43;2.90;;;4.70;56.00;4.30;96678.00;;;;5051371;28;20466;-85
2023/04/05 04:01:21;;;;;;;3.70;2.97;;;4.70;56.10;4.30;96685.00;;;;5059132;28;20200;-85
2023/04/05 04:03:50;;;;;;;3.40;3.10;;;4.70;56.10;4.30;96685.00;;;;5064158;28;20641;-86
2023/04/05 04:06:18;;;;;;;2.93;2.73;;;4.70;56.10;4.30;96680.00;;;;5057100;28;20224;-84
2023/04/05 04:08:46;;;;;;;2.83;2.50;;;4.70;56.10;4.30;96673.00;;;;5042790;28;20203;-88
2023/04/05 04:11:13;;;;;;;3.70;3.10;;;4.70;56.00;4.30;96683.00;;;;5050079;28;20197;-85
2023/04/05 04:13:40;;;;;;;2.97;2.60;;;4.70;56.00;4.30;96675.00;;;;5056043;28;20630;-85
2023/04/05 04:16:07;;;;;;;4.30;2.63;;;4.70;55.90;4.20;96679.00;;;;5056751;28;20946;-85
2023/04/05 04:18:34;;;;;;;3.10;2.83;;;4.70;55.90;4.20;96683.00;;;;5049138;28;20828;-85
2023/04/05 04:21:05;;;;;;;3.23;2.83;;;4.70;55.90;4.20;96680.00;;;;5051909;28;20470;-86
2023/04/05 04:23:33;;;;;;;3.30;3.00;;;4.70;55.90;4.20;96672.00;;;;5050299;28;20207;-85
2023/04/05 04:26:00;;;;;;;3.17;2.83;;;4.60;55.80;4.20;96674.00;;;;5051815;28;20209;-86
2023/04/05 04:28:27;;;;;;;3.57;3.20;;;4.60;55.80;4.20;96670.00;;;;5053079;28;20645;-83
2023/04/05 04:30:55;;;;;;;4.07;3.07;;;4.70;55.90;4.10;96670.00;;;;5053065;28;20461;-84
2023/04/05 04:33:22;;;;;;;3.00;2.77;;;4.60;55.90;4.10;96663.00;;;;5052127;28;20486;-87
2023/04/05 04:35:53;;;;;;;3.20;2.90;;;4.60;55.90;4.10;96668.00;;;;5063444;28;20572;-85
2023/04/05 04:38:24;;;;;;;3.30;2.87;;;4.60;56.00;4.10;96663.00;;;;5056536;28;20235;-86
2023/04/05 04:40:52;;;;;;;2.87;2.63;;;4.50;56.00;4.00;96670.00;;;;5051561;28;20477;-85
2023/04/05 04:43:26;;;;;;;3.33;3.03;;;4.50;56.00;4.00;96664.00;;;;5051726;28;20436;-84
2023/04/05 04:45:54;;;;;;;3.93;2.80;;;4.50;56.10;4.00;96663.00;;;;5069074;28;20461;-84
2023/04/05 04:48:23;;;;;;;3.33;2.77;;;4.50;56.10;4.00;96672.00;;;;5057159;28;21015;-84
2023/04/05 04:50:50;;;;;;;3.50;3.17;;;4.50;56.30;4.00;96667.00;;;;5051607;28;20514;-84
2023/04/05 04:53:23;;;;;;;3.53;3.23;;;4.50;56.30;4.00;96670.00;;;;5060356;28;20597;-84
2023/04/05 04:55:50;;;;;;;3.30;3.00;;;4.40;56.30;3.90;96680.00;;;;5052931;28;20483;-84
2023/04/05 04:58:18;;;;;;;4.00;3.27;;;4.40;56.30;3.90;96666.00;;;;5052569;28;22078;-84
2023/04/05 05:00:45;;;;;;;3.07;2.77;;;4.40;56.40;3.90;96667.00;;;;5050150;28;20819;-84
2023/04/05 05:03:18;;;;;;;4.30;2.90;;;4.40;56.30;3.90;96668.00;;;;5052833;28;20962;-84
2023/04/05 05:05:46;;;;;;;3.30;3.00;;;4.40;56.40;3.90;96667.00;;;;5049960;28;20489;-85
2023/04/05 05:08:14;;;;;;;3.77;3.47;;;4.30;56.30;3.90;96671.00;;;;5058354;28;20485;-87
2023/04/05 05:10:42;;;;;;;2.70;2.50;;;4.30;56.40;3.90;96672.00;;;;5050213;28;20440;-84
2023/04/05 05:13:10;;;;;;;5.10;3.53;;;4.30;56.50;3.80;96665.00;;;;5050009;28;20475;-85
2023/04/05 05:15:41;;;;;;;3.03;2.83;;;4.30;56.50;3.80;96665.00;;;;5049411;28;20459;-84
2023/04/05 05:18:11;;;;;;;3.37;3.07;;;4.30;56.60;3.80;96663.00;;;;5050660;28;20475;-88
2023/04/05 05:20:38;;;;;;;3.90;2.87;;;4.30;56.70;3.90;96659.00;;;;5061914;28;20524;-87
2023/04/05 05:23:06;;;;;;;3.57;3.27;;;4.30;56.70;3.90;96665.00;;;;5073843;28;20549;-87
2023/04/05 05:25:33;;;;;;;3.40;3.10;;;4.30;56.70;4.00;96668.00;;;;5073378;28;21004;-86
2023/04/05 05:28:02;;;;;;;3.17;2.90;;;4.30;56.90;4.00;96681.00;;;;5073143;28;20441;-86
2023/04/05 05:30:29;;;;;;;2.80;2.60;;;4.40;56.90;4.10;96676.00;;;;5074320;28;20435;-87
2023/04/05 05:32:57;;;;;;;4.07;3.17;;;4.40;56.90;4.10;96680.00;;;;5074644;28;20456;-86
2023/04/05 05:35:24;;;;;;;3.37;2.93;;;4.40;56.90;4.20;96676.00;;;;5073895;28;20450;-89
2023/04/05 05:37:54;;;;;;;3.73;3.40;;;4.50;57.00;4.20;96684.00;;;;5074300;28;20543;-87
2023/04/05 05:40:21;;;;;;;3.10;2.67;;;4.40;57.10;4.20;96685.00;;;;5074245;28;20202;-87
2023/04/05 05:42:49;;;;;;;3.23;2.93;;;4.50;57.10;4.30;96679.00;;;;5057089;28;20443;-89
2023/04/05 05:45:17;;;;;;;2.83;2.63;;;4.50;57.00;4.30;96677.00;;;;5053731;28;20482;-87
2023/04/05 05:47:45;;;;;;;3.50;3.17;;;4.50;57.00;4.30;96687.00;;;;5052952;28;20955;-89
2023/04/05 05:50:12;;;;;;;3.33;2.80;;;4.50;56.80;4.40;96684.00;;;;5052953;28;20878;-88
2023/04/05 05:52:43;;;;;;;2.73;2.20;;;4.60;56.90;4.40;96690.00;;;;5053642;28;20246;-87
2023/04/05 05:55:10;;;;;;;3.30;3.00;;;4.60;56.80;4.40;96694.00;;;;5052866;28;20463;-87
2023/04/05 05:57:37;;;;;;;3.10;2.90;;;4.60;56.70;4.40;96690.00;;;;5052612;28;20514;-87
2023/04/05 06:00:10;;;;;;;2.40;2.20;;;4.60;56.70;4.40;96695.00;;;;5036525;28;20451;-87
2023/04/05 06:02:44;;;;;;;2.73;2.53;;;4.70;56.80;4.50;96688.00;;;;5030538;28;20989;-88
2023/04/05 06:05:20;;;;;;;2.53;2.33;;;4.70;56.80;4.50;96695.00;;;;5064813;28;20216;-87
2023/04/05 06:07:47;;;;;;;6.10;2.77;;;4.70;56.70;4.50;96702.00;;;;5050188;28;20434;-87
2023/04/05 06:10:14;;;;;;;2.50;2.30;;;4.70;56.70;4.60;96702.00;;;;5049541;28;20444;-87
2023/04/05 06:12:41;;;;;;;4.30;2.40;;;4.80;56.70;4.60;96705.00;;;;5050617;28;20193;-88
2023/04/05 06:15:10;;;;;;;4.57;2.80;;;4.80;56.70;4.60;96693.00;;;;5051483;28;20459;-86
2023/04/05 06:17:41;;;;;;;2.60;2.40;;;4.80;56.70;4.70;96688.00;;;;5051177;28;20239;-86
2023/04/05 06:20:10;;;;;;;2.93;2.33;;;4.90;56.70;4.70;96695.00;;;;5051697;28;20231;-87
2023/04/05 06:22:39;;;;;;;3.60;2.53;;;4.90;56.60;4.70;96702.00;;;;5051982;28;20287;-87
2023/04/05 06:25:08;;;;;;;2.97;2.67;;;4.90;56.50;4.80;96702.00;;;;5052248;28;20558;-88
2023/04/05 06:27:37;;;;;;;3.57;2.90;;;5.00;56.50;4.80;96705.00;;;;5042963;28;20569;-87
2023/04/05 06:30:08;;;;;;;3.00;2.60;;;5.00;56.50;4.80;96699.00;;;;5055775;28;20649;-87
2023/04/05 06:32:35;;;;;;;2.60;2.40;;;5.00;56.50;4.90;96708.00;;;;5054669;28;20243;-87
2023/04/05 06:35:05;;;;;;;2.50;2.30;;;5.10;56.50;4.90;96702.00;;;;5055127;28;20549;-87
2023/04/05 06:37:32;;;;;;;2.60;2.03;;;5.10;56.40;5.00;96701.00;;;;5055450;28;20217;-87
2023/04/05 06:40:00;;;;;;;2.23;2.03;;;5.20;56.50;5.00;96711.00;;;;5054347;28;20188;-86
2023/04/05 06:42:27;;;;;;;3.37;2.37;;;5.20;56.60;5.10;96705.00;;;;5054197;28;20266;-87
2023/04/05 06:44:54;;;;;;;3.40;2.40;;;5.20;56.30;5.10;96705.00;;;;5054716;28;20306;-87
2023/04/05 06:47:21;;;;;;;2.53;2.07;;;6.40;56.70;5.20;96704.00;;;;5054152;28;20632;-87
2023/04/05 06:49:49;;;;;;;3.63;2.27;;;5.30;56.00;5.20;96709.00;;;;5054228;28;20247;-89
2023/04/05 06:52:18;;;;;;;3.43;2.40;;;5.40;56.00;5.20;96705.00;;;;5056296;28;20193;-85
2023/04/05 06:54:45;;;;;;;2.57;2.30;;;5.40;55.90;5.30;96709.00;;;;5049789;28;20239;-86
2023/04/05 06:57:12;;;;;;;2.40;2.20;;;5.50;56.20;5.40;96715.00;;;;5047439;28;20208;-86
2023/04/05 06:59:39;;;;;;;2.33;2.13;;;5.50;55.70;5.50;96701.00;;;;5057162;28;20229;-86
2023/04/05 07:02:07;;;;;;;2.80;2.00;;;5.60;55.70;5.50;96707.00;;;;5049215;28;20192;-85
2023/04/05 07:04:36;;;;;;;4.10;2.30;;;5.70;55.70;5.60;96707.00;;;;5046891;28;20220;-85
2023/04/05 07:07:04;;;;;;;2.20;1.83;;;5.70;55.60;5.60;96705.00;;;;5056063;28;20205;-86
2023/04/05 07:09:33;;;;;;;2.60;2.40;;;5.80;55.60;5.70;96712.00;;;;5050486;28;20201;-86
2023/04/05 07:12:00;;;;;;;2.43;2.20;;;5.80;55.50;5.80;96701.00;;;;5051722;28;20623;-86
2023/04/05 07:14:30;;;;;;;2.43;2.10;;;5.90;55.50;5.90;96706.00;;;;5052914;28;20288;-85
2023/04/05 07:16:57;;;;;;;2.20;1.60;;;6.00;55.40;5.90;96713.00;;;;5051917;28;20234;-86
2023/04/05 07:19:27;;;;;;;2.37;1.70;;;6.00;55.20;6.00;96706.00;;;;5046740;28;20317;-84
2023/04/05 07:21:56;;;;;;;1.70;1.60;;;6.10;55.20;6.10;96710.00;;;;5040403;28;20297;-84
2023/04/05 07:24:29;;;;;;;3.17;2.00;;;6.20;55.20;6.20;96711.00;;;;5056844;28;20208;-85
2023/04/05 07:26:58;;;;;;;1.77;1.67;;;6.30;55.20;6.40;96718.00;;;;5053248;28;20238;-86
2023/04/05 07:29:28;;;;;;;1.70;1.50;;;6.40;55.10;6.60;96711.00;;;;5050884;28;20209;-88
2023/04/05 07:31:55;;;;;;;2.57;1.70;;;6.50;55.30;6.80;96709.00;;;;5049607;28;20225;-86
2023/04/05 07:34:26;;;;;;;3.13;1.70;;;6.60;55.30;7.00;96717.00;;;;5056574;28;20193;-86
2023/04/05 07:36:53;;;;;;;2.30;2.10;;;6.80;55.20;7.20;96719.00;;;;5051078;28;20193;-86
2023/04/05 07:39:22;;;;;;;1.93;1.60;;;6.90;54.90;7.40;96725.00;;;;5053713;28;20248;-84
2023/04/05 07:41:50;;;;;;;2.40;1.80;;;7.10;54.60;7.60;96729.00;;;;5057922;28;20650;-86
2023/04/05 07:44:18;;;;;;;2.00;1.50;;;7.20;54.50;7.80;96730.00;;;;5052648;28;20207;-85
2023/04/05 07:46:46;;;;;;;2.10;1.53;;;7.40;54.00;8.00;96732.00;;;;5057040;28;20232;-84
2023/04/05 07:49:13;;;;;;;2.33;1.80;;;7.60;53.90;8.10;96731.00;;;;5054884;28;20696;-84
2023/04/05 07:51:42;;;;;;;1.33;1.23;;;7.70;53.90;8.40;96740.00;;;;5047882;28;20196;-85
2023/04/05 07:54:09;;;;;;;2.43;1.70;;;7.90;53.70;8.60;96732.00;;;;5050056;28;20231;-85
2023/04/05 07:56:37;;;;;;;3.77;2.27;;;8.10;53.60;8.70;96744.00;;;;5047231;28;20220;-85
2023/04/05 07:59:04;;;;;;;1.73;1.63;;;8.30;53.50;8.90;96736.00;;;;5047255;28;20307;-85
2023/04/05 08:01:33;;;;;;;1.67;1.50;;;8.40;53.40;9.10;96746.00;;;;5050562;28;20277;-83
2023/04/05 08:04:06;;;;;;;2.60;1.70;;;8.60;53.20;9.30;96748.00;;;;5048963;28;20295;-85
2023/04/05 08:06:34;;;;;;;2.00;1.40;;;8.80;52.80;9.50;96745.00;;;;5051951;28;20212;-83
2023/04/05 08:09:04;;;;;;;1.60;1.50;;;9.00;52.60;9.60;96742.00;;;;5035723;28;20648;-84
2023/04/05 08:11:33;;;;;;;1.50;1.40;;;9.10;52.30;9.80;96733.00;;;;5042343;28;20193;-83
2023/04/05 08:14:00;;;;;;;1.90;1.70;;;9.30;52.00;9.90;96748.00;;;;5057002;28;20544;-84
2023/04/05 08:16:29;;;;;;;1.70;1.60;;;9.40;51.70;10.10;96747.00;;;;5054047;28;20649;-83
2023/04/05 08:18:58;;;;;;;1.77;1.63;;;9.60;51.60;10.30;96741.00;;;;5044278;28;20552;-85
2023/04/05 08:21:27;;;;;;;2.43;1.70;;;9.70;51.30;10.40;96748.00;;;;5060243;28;20204;-84
2023/04/05 08:23:54;;;;;;;2.03;1.53;;;9.90;51.00;10.60;96747.00;;;;5058371;28;20595;-84
2023/04/05 08:26:22;;;;;;;2.67;1.70;;;10.10;51.00;10.70;96748.00;;;;5049244;28;20213;-83
2023/04/05 08:28:50;;;;;;;1.63;1.53;;;10.20;51.00;10.90;96750.00;;;;5051819;28;20646;-83
2023/04/05 08:31:24;;;;;;;2.13;1.93;;;10.30;50.60;11.00;96743.00;;;;5055328;28;20266;-82
2023/04/05 08:33:51;;;;;;;3.30;1.43;;;10.40;50.10;11.20;96746.00;;;;5057327;28;20280;-84
2023/04/05 08:36:33;;;;;;;2.07;1.80;;;10.60;49.80;11.30;96754.00;;;;5035328;28;20213;-84
2023/04/05 08:39:00;;;;;;;2.07;1.90;;;10.70;48.90;11.50;96754.00;;;;5054808;28;20307;-84
2023/04/05 08:41:36;;;;;;;1.83;1.73;;;10.80;49.00;11.70;96756.00;;;;5060957;28;20200;-84
2023/04/05 08:44:07;;;;;;;1.73;1.50;;;10.90;48.90;11.80;96749.00;;;;5044844;28;20195;-84
2023/04/05 08:46:36;;;;;;;2.03;1.90;;;11.10;49.00;12.10;96759.00;;;;5049221;28;20221;-84
2023/04/05 08:49:07;;;;;;;1.60;1.50;;;11.20;48.90;12.30;96756.00;;;;5037181;28;20222;-85
2023/04/05 08:51:39;;;;;;;1.67;1.47;;;11.40;48.90;12.50;96761.00;;;;5059463;28;20203;-84
2023/04/05 08:54:06;;;;;;;3.43;2.10;;;11.60;48.80;12.80;96765.00;;;;5066514;28;20223;-84
2023/04/05 08:56:36;;;;;;;2.27;1.80;;;11.70;48.70;12.90;96757.00;;;;5060908;28;20216;-80
2023/04/05 08:59:06;;;;;;;1.93;1.37;;;11.90;48.30;13.10;96763.00;;;;5060178;28;20274;-82
2023/04/05 09:01:38;;;;;;;2.43;1.70;;;12.10;48.50;13.30;96760.00;;;;5059015;28;20192;-82
2023/04/05 09:04:09;;;;;;;2.13;2.00;;;12.20;48.40;13.40;96768.00;;;;5060427;28;20193;-83
2023/04/05 09:06:38;;;;;;;3.28;2.00;;;12.40;47.70;13.50;96764.00;;;;5060265;28;20474;-82
2023/04/05 09:09:08;;;;;;;2.37;1.97;;;12.50;46.60;13.60;96766.00;;;;5038803;28;20672;-82
2023/04/05 09:11:36;;;;;;;2.80;1.80;;;12.60;46.70;13.80;96756.00;;;;5066610;28;20196;-83
2023/04/05 09:14:05;;;;;;;1.63;1.53;;;12.80;46.80;14.00;96768.00;;;;5054007;28;20235;-83
2023/04/05 09:16:38;;;;;;;1.60;1.30;;;12.90;46.90;14.10;96762.00;;;;5063477;28;20273;-85
2023/04/05 09:19:06;;;;;;;2.13;1.60;;;13.10;46.30;14.20;96764.00;;;;5048957;28;20231;-85
2023/04/05 09:22:00;;;;;;;1.80;1.43;;;13.20;46.30;14.40;96768.00;;;;5058808;28;20618;-81
2023/04/05 09:24:33;;;;;;;1.87;1.70;;;13.40;45.50;14.50;96767.00;;;;5027471;28;20201;-84
2023/04/05 09:27:08;;;;;;;3.37;1.93;;;13.50;45.60;14.70;96769.00;;;;5057458;28;20192;-84
2023/04/05 09:29:36;;;;;;;1.50;1.40;;;13.70;45.30;14.80;96766.00;;;;5045306;28;20262;-83
2023/04/05 09:32:06;;;;;;;2.87;1.90;;;13.80;45.40;15.00;96764.00;;;;5048513;28;20200;-85
2023/04/05 09:34:35;;;;;;;1.93;1.60;;;13.90;45.60;15.30;96769.00;;;;5055285;28;21931;-84
2023/04/05 09:37:14;;;;;;;1.73;1.57;;;14.10;45.80;15.40;96765.00;;;;5050327;28;20199;-83
2023/04/05 09:39:41;;;;;;;2.20;1.53;;;14.20;45.20;15.40;96773.00;;;;5058992;28;20216;-85
2023/04/05 09:42:12;;;;;;;1.97;1.57;;;14.30;45.30;15.40;96771.00;;;;5064522;28;20231;-85
2023/04/05 09:44:50;;;;;;;2.00;1.80;;;14.40;44.60;15.40;96766.00;;;;5059226;28;20572;-84
2023/04/05 09:47:19;;;;;;;2.03;1.43;;;14.50;44.10;15.40;96767.00;;;;5049813;28;20748;-84
2023/04/05 09:49:47;;;;;;;1.40;1.30;;;14.50;44.30;15.70;96766.00;;;;5050857;28;20236;-84
2023/04/05 09:52:27;;;;;;;2.53;1.80;;;14.70;44.50;16.00;96769.00;;;;5049482;28;20230;-83
2023/04/05 09:54:56;;;;;;;1.67;1.57;;;14.80;44.00;16.20;96775.00;;;;5052235;28;20692;-84
2023/04/05 09:57:26;;;;;;;1.70;1.47;;;15.00;44.70;16.30;96781.00;;;;5063891;28;20236;-84
2023/04/05 10:00:04;;;;;;;1.50;1.40;;;15.20;44.60;16.30;96776.00;;;;5048732;28;20251;-83
2023/04/05 10:02:37;;;;;;;1.93;1.60;;;15.30;44.00;16.30;96781.00;;;;5062248;28;20192;-83
2023/04/05 10:05:10;;;;;;;1.90;1.70;;;15.40;43.10;16.10;96780.00;;;;5059290;28;20250;-83
2023/04/05 10:07:40;;;;;;;1.73;1.40;;;15.40;42.60;15.80;96783.00;;;;5061118;28;20211;-84
2023/04/05 10:10:11;;;;;;;2.50;1.50;;;15.30;42.50;15.60;96778.00;;;;5065569;28;20201;-84
2023/04/05 10:12:46;;;;;;;1.50;1.40;;;15.20;42.10;15.50;96763.00;;;;5058746;28;20892;-84
2023/04/05 10:15:14;;;;;;;1.40;1.30;;;15.20;42.30;15.60;96763.00;;;;5058206;28;20606;-84
2023/04/05 10:17:50;;;;;;;1.33;1.23;;;15.20;42.80;15.80;96777.00;;;;5051940;28;20196;-84
2023/04/05 10:20:20;;;;;;;1.30;1.20;;;15.30;42.70;16.00;96770.00;;;;5053934;28;20212;-84
2023/04/05 10:23:01;;;;;;;2.43;1.47;;;15.50;44.10;16.10;96771.00;;;;5060031;28;20644;-84
2023/04/05 10:25:43;;;;;;;1.40;1.30;;;15.60;42.00;16.00;96772.00;;;;5054029;28;20851;-84
2023/04/05 10:28:15;;;;;;;1.70;1.30;;;15.60;41.40;15.80;96772.00;;;;5048795;28;20200;-83
2023/04/05 10:30:51;;;;;;;2.50;1.50;;;15.60;40.70;15.50;96762.00;;;;5063873;28;20220;-84
2023/04/05 10:33:24;;;;;;;2.87;1.70;;;15.50;40.20;15.20;96757.00;;;;5059515;28;20219;-83
2023/04/05 10:36:16;;;;;;;1.50;1.40;;;15.40;40.20;14.90;96757.00;;;;5060136;28;20243;-84
2023/04/05 10:39:00;;;;;;;1.80;1.33;;;15.20;39.90;14.90;96753.00;;;;5063099;28;20239;-84
2023/04/05 10:41:36;;;;;;;2.20;1.50;;;15.10;40.70;14.90;96752.00;;;;5057268;28;20211;-85
2023/04/05 10:44:05;;;;;;;1.30;1.20;;;15.00;41.30;14.90;96753.00;;;;5061887;28;20196;-84
2023/04/05 10:46:33;;;;;;;1.70;1.47;;;14.90;41.10;14.90;96756.00;;;;5065180;28;20244;-84
2023/04/05 10:49:16;;;;;;;1.70;1.60;;;14.80;40.80;14.90;96747.00;;;;5056071;28;20222;-85
2023/04/05 10:51:46;;;;;;;2.17;1.40;;;14.80;40.20;14.90;96747.00;;;;5059104;28;20205;-83
2023/04/05 10:54:15;;;;;;;1.73;1.57;;;14.70;41.30;15.00;96747.00;;;;5063181;28;20234;-82
2023/04/05 10:56:44;;;;;;;2.10;1.90;;;14.70;41.10;15.00;96743.00;;;;5051524;28;20224;-83
2023/04/05 10:59:13;;;;;;;1.67;1.50;;;14.70;41.10;15.00;96749.00;;;;5061111;28;20647;-83
2023/04/05 11:01:43;;;;;;;2.07;1.60;;;14.70;40.70;14.90;96748.00;;;;5052896;28;20224;-84
2023/04/05 11:04:14;;;;;;;2.13;1.60;;;14.60;40.60;14.90;96732.00;;;;5059829;28;20227;-86
2023/04/05 11:06:42;;;;;;;1.60;1.50;;;14.60;40.40;14.80;96742.00;;;;5064858;28;20204;-86
2023/04/05 11:09:16;;;;;;;1.90;1.80;;;14.50;40.10;14.70;96743.00;;;;5061341;28;20270;-86
2023/04/05 11:11:46;;;;;;;1.57;1.47;;;14.50;40.20;14.70;96747.00;;;;5060753;28;20218;-87
2023/04/05 11:14:22;;;;;;;1.43;1.33;;;14.40;40.30;14.60;96736.00;;;;5061947;28;20886;-85
2023/04/05 11:16:54;;;;;;;2.23;1.60;;;14.40;39.80;14.60;96723.00;;;;5062420;28;20196;-87